Back to Top

Language: 

My Weather Underground Personal Weather Station Historical Data with Graphs...

Delerius Weather Station Historical Data
Daily Summary for February 5, 2017 Units:  Both    English   Metric
« Previous Day
Next Day »
Daily Weekly Monthly Yearly Custom
  High: Low: Average:
Temperature: 44.1 °F /  6.7 °C 32.6 °F /  0.3 °C 38.3 °F /  3.5 °C
Dew Point: 39.4 °F /  4.1 °C 30.7 °F /  -0.7 °C 35.6 °F /  2 °C
Humidity: 96 % 78 % 90 %
Wind Speed: 6.0 mph /  9.7 km/h - 1 mph /  1.6 km/h
Wind Gust: 20.0 mph /  32.2 km/h - -
Wind:- - South
Pressure: 29.98 in /  1015.1 hPa 29.45 in /  997.2 hPa -
Precipitation: 0.00 in /  0 mm    
Historical Graphs
 
 
Tabular Data for February 5, 2017
Time Temperature Dew Point Pressure Wind Wind Speed Wind Gust Humidity Rainfall Rate (Hourly) solar Conditions
00:00 35.0 °F /  1.7 °C 32.6 °F /  0.3 °C 29.45 in /  997.2 hPa Calm   20.0 mph /  32.2 km/h 91 % 0.00 in /  0 mm 0 W/m2
00:05 34.9 °F /  1.6 °C 32.5 °F /  0.3 °C 29.45 in /  997.2 hPa Calm   20.0 mph /  32.2 km/h 91 % 0.00 in /  0 mm 0 W/m2
00:15 34.7 °F /  1.5 °C 32.3 °F /  0.2 °C 29.45 in /  997.2 hPa Calm   2.0 mph /  3.2 km/h 91 % 0.00 in /  0 mm 0 W/m2
00:20 34.6 °F /  1.4 °C 32.2 °F /  0.1 °C 29.45 in /  997.2 hPa Calm     91 % 0.00 in /  0 mm 0 W/m2
00:25 34.4 °F /  1.3 °C 32.0 °F /  0 °C 29.45 in /  997.2 hPa Calm     91 % 0.00 in /  0 mm 0 W/m2
00:35 34.2 °F /  1.2 °C 32.1 °F /  0.1 °C 29.45 in /  997.2 hPa Calm     92 % 0.00 in /  0 mm 0 W/m2
00:40 34.2 °F /  1.2 °C 32.1 °F /  0.1 °C 29.45 in /  997.2 hPa Calm     92 % 0.00 in /  0 mm 0 W/m2
00:45 34.1 °F /  1.2 °C 32.0 °F /  0 °C 29.46 in /  997.5 hPa Calm     92 % 0.00 in /  0 mm 0 W/m2
00:50 33.9 °F /  1.1 °C 31.8 °F /  -0.1 °C 29.46 in /  997.5 hPa Calm     92 % 0.00 in /  0 mm 0 W/m2
00:55 33.7 °F /  0.9 °C 31.6 °F /  -0.2 °C 29.45 in /  997.2 hPa Calm     92 % 0.00 in /  0 mm 0 W/m2
01:05 34.2 °F /  1.2 °C 32.4 °F /  0.2 °C 29.45 in /  997.2 hPa Calm   4.0 mph /  6.4 km/h 93 % 0.00 in /  0 mm 0 W/m2
01:10 34.4 °F /  1.3 °C 32.6 °F /  0.3 °C 29.45 in /  997.2 hPa Calm   4.0 mph /  6.4 km/h 93 % 0.00 in /  0 mm 0 W/m2
01:15 34.7 °F /  1.5 °C 32.9 °F /  0.5 °C 29.45 in /  997.2 hPa Calm   4.0 mph /  6.4 km/h 93 % 0.00 in /  0 mm 0 W/m2
01:20 35.0 °F /  1.7 °C 33.4 °F /  0.8 °C 29.45 in /  997.2 hPa SE 1.0 mph /  1.6 km/h 4.0 mph /  6.4 km/h 94 % 0.00 in /  0 mm 0 W/m2
01:25 35.2 °F /  1.8 °C 33.4 °F /  0.8 °C 29.45 in /  997.2 hPa Calm   4.0 mph /  6.4 km/h 93 % 0.00 in /  0 mm 0 W/m2
01:30 35.3 °F /  1.8 °C 33.5 °F /  0.8 °C 29.45 in /  997.2 hPa SE 1.0 mph /  1.6 km/h 4.0 mph /  6.4 km/h 93 % 0.00 in /  0 mm 0 W/m2
01:40 35.6 °F /  2 °C 33.8 °F /  1 °C 29.46 in /  997.5 hPa SE 2.0 mph /  3.2 km/h 4.0 mph /  6.4 km/h 93 % 0.00 in /  0 mm 0 W/m2
01:45 35.7 °F /  2.1 °C 33.9 °F /  1.1 °C 29.46 in /  997.5 hPa SE 3.0 mph /  4.8 km/h 4.0 mph /  6.4 km/h 93 % 0.00 in /  0 mm 0 W/m2
01:50 35.8 °F /  2.1 °C 34.0 °F /  1.1 °C 29.46 in /  997.5 hPa SE 4.0 mph /  6.4 km/h 4.0 mph /  6.4 km/h 93 % 0.00 in /  0 mm 0 W/m2
01:55 35.9 °F /  2.2 °C 34.1 °F /  1.2 °C 29.46 in /  997.5 hPa SE 4.0 mph /  6.4 km/h 4.0 mph /  6.4 km/h 93 % 0.00 in /  0 mm 0 W/m2
02:00 36.0 °F /  2.2 °C 34.2 °F /  1.2 °C 29.46 in /  997.5 hPa SE 4.0 mph /  6.4 km/h 4.0 mph /  6.4 km/h 93 % 0.00 in /  0 mm 0 W/m2
02:10 36.1 °F /  2.3 °C 34.3 °F /  1.3 °C 29.46 in /  997.5 hPa ESE 4.0 mph /  6.4 km/h 6.0 mph /  9.7 km/h 93 % 0.00 in /  0 mm 0 W/m2
02:15 36.3 °F /  2.4 °C 34.5 °F /  1.4 °C 29.46 in /  997.5 hPa SE 4.0 mph /  6.4 km/h 6.0 mph /  9.7 km/h 93 % 0.00 in /  0 mm 0 W/m2
02:20 36.4 °F /  2.4 °C 34.6 °F /  1.4 °C 29.46 in /  997.5 hPa SE 5.0 mph /  8 km/h 5.0 mph /  8 km/h 93 % 0.00 in /  0 mm 0 W/m2
02:25 36.4 °F /  2.4 °C 34.6 °F /  1.4 °C 29.46 in /  997.5 hPa SE 6.0 mph /  9.7 km/h 6.0 mph /  9.7 km/h 93 % 0.00 in /  0 mm 0 W/m2
02:30 36.4 °F /  2.4 °C 34.6 °F /  1.4 °C 29.46 in /  997.5 hPa SE 6.0 mph /  9.7 km/h 6.0 mph /  9.7 km/h 93 % 0.00 in /  0 mm 0 W/m2
02:35 36.4 °F /  2.4 °C 34.6 °F /  1.4 °C 29.46 in /  997.5 hPa SE 5.0 mph /  8 km/h 6.0 mph /  9.7 km/h 93 % 0.00 in /  0 mm 0 W/m2
02:45 36.3 °F /  2.4 °C 34.5 °F /  1.4 °C 29.46 in /  997.5 hPa ESE 3.0 mph /  4.8 km/h 4.0 mph /  6.4 km/h 93 % 0.00 in /  0 mm 0 W/m2
02:50 36.3 °F /  2.4 °C 34.7 °F /  1.5 °C 29.46 in /  997.5 hPa SE 3.0 mph /  4.8 km/h 5.0 mph /  8 km/h 94 % 0.00 in /  0 mm 0 W/m2
02:55 36.3 °F /  2.4 °C 34.7 °F /  1.5 °C 29.46 in /  997.5 hPa SE 4.0 mph /  6.4 km/h 5.0 mph /  8 km/h 94 % 0.00 in /  0 mm 0 W/m2
03:00 36.3 °F /  2.4 °C 34.7 °F /  1.5 °C 29.47 in /  997.9 hPa SE 5.0 mph /  8 km/h 5.0 mph /  8 km/h 94 % 0.00 in /  0 mm 0 W/m2
03:05 36.3 °F /  2.4 °C 34.7 °F /  1.5 °C 29.47 in /  997.9 hPa SE 5.0 mph /  8 km/h 6.0 mph /  9.7 km/h 94 % 0.00 in /  0 mm 0 W/m2
03:15 36.4 °F /  2.4 °C 34.8 °F /  1.6 °C 29.46 in /  997.5 hPa ESE 6.0 mph /  9.7 km/h 8.0 mph /  12.9 km/h 94 % 0.00 in /  0 mm 0 W/m2
03:20 36.4 °F /  2.4 °C 34.8 °F /  1.6 °C 29.47 in /  997.9 hPa SE 6.0 mph /  9.7 km/h 6.0 mph /  9.7 km/h 94 % 0.00 in /  0 mm 0 W/m2
03:25 36.5 °F /  2.5 °C 34.9 °F /  1.6 °C 29.46 in /  997.5 hPa SE 6.0 mph /  9.7 km/h 6.0 mph /  9.7 km/h 94 % 0.00 in /  0 mm 0 W/m2
03:30 36.5 °F /  2.5 °C 34.9 °F /  1.6 °C 29.46 in /  997.5 hPa SE 5.0 mph /  8 km/h 5.0 mph /  8 km/h 94 % 0.00 in /  0 mm 0 W/m2
03:35 36.5 °F /  2.5 °C 34.9 °F /  1.6 °C 29.46 in /  997.5 hPa SE 6.0 mph /  9.7 km/h 6.0 mph /  9.7 km/h 94 % 0.00 in /  0 mm 0 W/m2
03:40 36.6 °F /  2.6 °C 35.0 °F /  1.7 °C 29.46 in /  997.5 hPa SE 6.0 mph /  9.7 km/h 6.0 mph /  9.7 km/h 94 % 0.00 in /  0 mm 0 W/m2
03:50 36.7 °F /  2.6 °C 35.4 °F /  1.9 °C 29.47 in /  997.9 hPa SSE 5.0 mph /  8 km/h 5.0 mph /  8 km/h 95 % 0.00 in /  0 mm 0 W/m2
03:55 36.7 °F /  2.6 °C 35.4 °F /  1.9 °C 29.47 in /  997.9 hPa South 3.0 mph /  4.8 km/h 5.0 mph /  8 km/h 95 % 0.00 in /  0 mm 0 W/m2
04:00 36.7 °F /  2.6 °C 35.4 °F /  1.9 °C 29.47 in /  997.9 hPa SSE 2.0 mph /  3.2 km/h 4.0 mph /  6.4 km/h 95 % 0.00 in /  0 mm 0 W/m2
04:05 36.8 °F /  2.7 °C 35.5 °F /  1.9 °C 29.47 in /  997.9 hPa SSE 2.0 mph /  3.2 km/h 4.0 mph /  6.4 km/h 95 % 0.00 in /  0 mm 0 W/m2
04:10 36.8 °F /  2.7 °C 35.5 °F /  1.9 °C 29.48 in /  998.2 hPa Calm   4.0 mph /  6.4 km/h 95 % 0.00 in /  0 mm 0 W/m2
04:20 36.8 °F /  2.7 °C 35.5 °F /  1.9 °C 29.48 in /  998.2 hPa Calm   4.0 mph /  6.4 km/h 95 % 0.00 in /  0 mm 0 W/m2
04:25 36.9 °F /  2.7 °C 35.6 °F /  2 °C 29.47 in /  997.9 hPa Calm   4.0 mph /  6.4 km/h 95 % 0.00 in /  0 mm 0 W/m2
04:30 36.9 °F /  2.7 °C 35.3 °F /  1.8 °C 29.47 in /  997.9 hPa Calm   4.0 mph /  6.4 km/h 94 % 0.00 in /  0 mm 0 W/m2
04:35 36.9 °F /  2.7 °C 35.3 °F /  1.8 °C 29.48 in /  998.2 hPa SSE 1.0 mph /  1.6 km/h 4.0 mph /  6.4 km/h 94 % 0.00 in /  0 mm 0 W/m2
04:40 36.9 °F /  2.7 °C 35.3 °F /  1.8 °C 29.48 in /  998.2 hPa Calm   4.0 mph /  6.4 km/h 94 % 0.00 in /  0 mm 0 W/m2
04:45 36.9 °F /  2.7 °C 35.6 °F /  2 °C 29.49 in /  998.5 hPa Calm   4.0 mph /  6.4 km/h 95 % 0.00 in /  0 mm 0 W/m2
04:55 37.1 °F /  2.8 °C 35.8 °F /  2.1 °C 29.49 in /  998.5 hPa SE 5.0 mph /  8 km/h 8.0 mph /  12.9 km/h 95 % 0.00 in /  0 mm 0 W/m2
05:00 37.2 °F /  2.9 °C 35.9 °F /  2.2 °C 29.49 in /  998.5 hPa SE 4.0 mph /  6.4 km/h 4.0 mph /  6.4 km/h 95 % 0.00 in /  0 mm 0 W/m2
05:05 37.1 °F /  2.8 °C 35.5 °F /  1.9 °C 29.49 in /  998.5 hPa SE 2.0 mph /  3.2 km/h 4.0 mph /  6.4 km/h 94 % 0.00 in /  0 mm 0 W/m2
05:10 37.1 °F /  2.8 °C 35.5 °F /  1.9 °C 29.50 in /  998.9 hPa ESE 2.0 mph /  3.2 km/h 4.0 mph /  6.4 km/h 94 % 0.00 in /  0 mm 0 W/m2
05:15 37.0 °F /  2.8 °C 35.4 °F /  1.9 °C 29.50 in /  998.9 hPa ESE 3.0 mph /  4.8 km/h 4.0 mph /  6.4 km/h 94 % 0.00 in /  0 mm 0 W/m2
05:25 37.1 °F /  2.8 °C 35.8 °F /  2.1 °C 29.50 in /  998.9 hPa ESE 1.0 mph /  1.6 km/h 4.0 mph /  6.4 km/h 95 % 0.00 in /  0 mm 0 W/m2
05:30 37.1 °F /  2.8 °C 35.5 °F /  1.9 °C 29.50 in /  998.9 hPa Calm   4.0 mph /  6.4 km/h 94 % 0.00 in /  0 mm 0 W/m2
05:35 37.1 °F /  2.8 °C 35.8 °F /  2.1 °C 29.50 in /  998.9 hPa Calm   4.0 mph /  6.4 km/h 95 % 0.00 in /  0 mm 0 W/m2
05:40 37.1 °F /  2.8 °C 35.5 °F /  1.9 °C 29.50 in /  998.9 hPa Calm   4.0 mph /  6.4 km/h 94 % 0.00 in /  0 mm 0 W/m2
05:45 37.1 °F /  2.8 °C 35.8 °F /  2.1 °C 29.50 in /  998.9 hPa Calm   4.0 mph /  6.4 km/h 95 % 0.00 in /  0 mm 0 W/m2
05:50 37.2 °F /  2.9 °C 35.9 °F /  2.2 °C 29.50 in /  998.9 hPa Calm   4.0 mph /  6.4 km/h 95 % 0.00 in /  0 mm 0 W/m2
06:00 37.4 °F /  3 °C 36.1 °F /  2.3 °C 29.50 in /  998.9 hPa SSE 1.0 mph /  1.6 km/h 1.0 mph /  1.6 km/h 95 % 0.00 in /  0 mm 0 W/m2
06:05 37.4 °F /  3 °C 36.1 °F /  2.3 °C 29.50 in /  998.9 hPa Calm   4.0 mph /  6.4 km/h 95 % 0.00 in /  0 mm 0 W/m2
06:10 37.4 °F /  3 °C 36.1 °F /  2.3 °C 29.51 in /  999.2 hPa Calm   4.0 mph /  6.4 km/h 95 % 0.00 in /  0 mm 0 W/m2
06:15 37.4 °F /  3 °C 36.1 °F /  2.3 °C 29.51 in /  999.2 hPa Calm   4.0 mph /  6.4 km/h 95 % 0.00 in /  0 mm 0 W/m2
06:20 37.4 °F /  3 °C 36.1 °F /  2.3 °C 29.51 in /  999.2 hPa Calm   4.0 mph /  6.4 km/h 95 % 0.00 in /  0 mm 0 W/m2
06:30 37.4 °F /  3 °C 36.1 °F /  2.3 °C 29.52 in /  999.5 hPa Calm   4.0 mph /  6.4 km/h 95 % 0.00 in /  0 mm 0 W/m2
06:35 37.3 °F /  2.9 °C 36.0 °F /  2.2 °C 29.52 in /  999.5 hPa Calm   4.0 mph /  6.4 km/h 95 % 0.00 in /  0 mm 0 W/m2
06:40 37.4 °F /  3 °C 36.1 °F /  2.3 °C 29.52 in /  999.5 hPa Calm   4.0 mph /  6.4 km/h 95 % 0.00 in /  0 mm 0 W/m2
06:45 37.3 °F /  2.9 °C 36.0 °F /  2.2 °C 29.52 in /  999.5 hPa Calm   4.0 mph /  6.4 km/h 95 % 0.00 in /  0 mm 0 W/m2
06:50 37.4 °F /  3 °C 36.1 °F /  2.3 °C 29.53 in /  999.9 hPa Calm   4.0 mph /  6.4 km/h 95 % 0.00 in /  0 mm 0 W/m2
06:55 37.4 °F /  3 °C 36.1 °F /  2.3 °C 29.53 in /  999.9 hPa Calm   4.0 mph /  6.4 km/h 95 % 0.00 in /  0 mm 0 W/m2
07:05 37.4 °F /  3 °C 36.1 °F /  2.3 °C 29.53 in /  999.9 hPa Calm   4.0 mph /  6.4 km/h 95 % 0.00 in /  0 mm 0 W/m2
07:10 37.4 °F /  3 °C 36.1 °F /  2.3 °C 29.53 in /  999.9 hPa Calm   4.0 mph /  6.4 km/h 95 % 0.00 in /  0 mm 0 W/m2
07:15 37.4 °F /  3 °C 36.1 °F /  2.3 °C 29.53 in /  999.9 hPa Calm   4.0 mph /  6.4 km/h 95 % 0.00 in /  0 mm 0 W/m2
07:20 37.4 °F /  3 °C 36.1 °F /  2.3 °C 29.54 in /  1000.2 hPa Calm   4.0 mph /  6.4 km/h 95 % 0.00 in /  0 mm 0 W/m2
07:25 37.5 °F /  3.1 °C 36.2 °F /  2.3 °C 29.54 in /  1000.2 hPa Calm   4.0 mph /  6.4 km/h 95 % 0.00 in /  0 mm 0 W/m2
07:35 37.6 °F /  3.1 °C 36.3 °F /  2.4 °C 29.54 in /  1000.2 hPa Calm   4.0 mph /  6.4 km/h 95 % 0.00 in /  0 mm 0 W/m2
07:40 37.6 °F /  3.1 °C 36.3 °F /  2.4 °C 29.54 in /  1000.2 hPa Calm   5.0 mph /  8 km/h 95 % 0.00 in /  0 mm 0 W/m2
07:45 37.5 °F /  3.1 °C 36.2 °F /  2.3 °C 29.55 in /  1000.6 hPa SSE 1.0 mph /  1.6 km/h 5.0 mph /  8 km/h 95 % 0.00 in /  0 mm 0 W/m2
07:55 37.4 °F /  3 °C 36.1 °F /  2.3 °C 29.55 in /  1000.6 hPa Calm   4.0 mph /  6.4 km/h 95 % 0.00 in /  0 mm 5 W/m2
08:00 37.4 °F /  3 °C 36.1 °F /  2.3 °C 29.55 in /  1000.6 hPa Calm   4.0 mph /  6.4 km/h 95 % 0.00 in /  0 mm 7 W/m2
08:05 37.3 °F /  2.9 °C 36.0 °F /  2.2 °C 29.55 in /  1000.6 hPa Calm   4.0 mph /  6.4 km/h 95 % 0.00 in /  0 mm 9 W/m2
08:10 37.3 °F /  2.9 °C 36.0 °F /  2.2 °C 29.56 in /  1000.9 hPa SSE 1.0 mph /  1.6 km/h 4.0 mph /  6.4 km/h 95 % 0.00 in /  0 mm 12 W/m2
08:20 37.5 °F /  3.1 °C 36.2 °F /  2.3 °C 29.56 in /  1000.9 hPa SSE 1.0 mph /  1.6 km/h 4.0 mph /  6.4 km/h 95 % 0.00 in /  0 mm 18 W/m2
08:25 37.5 °F /  3.1 °C 36.2 °F /  2.3 °C 29.57 in /  1001.2 hPa West 2.0 mph /  3.2 km/h 4.0 mph /  6.4 km/h 95 % 0.00 in /  0 mm 19 W/m2
08:30 37.5 °F /  3.1 °C 36.2 °F /  2.3 °C 29.57 in /  1001.2 hPa West 2.0 mph /  3.2 km/h 2.0 mph /  3.2 km/h 95 % 0.00 in /  0 mm 23 W/m2
08:35 37.5 °F /  3.1 °C 36.2 °F /  2.3 °C 29.57 in /  1001.2 hPa Calm   4.0 mph /  6.4 km/h 95 % 0.00 in /  0 mm 21 W/m2
08:40 37.6 °F /  3.1 °C 36.3 °F /  2.4 °C 29.57 in /  1001.2 hPa Calm   4.0 mph /  6.4 km/h 95 % 0.00 in /  0 mm 23 W/m2
08:45 37.6 °F /  3.1 °C 36.6 °F /  2.6 °C 29.58 in /  1001.6 hPa East 1.0 mph /  1.6 km/h 4.0 mph /  6.4 km/h 96 % 0.00 in /  0 mm 28 W/m2
08:55 37.7 °F /  3.2 °C 36.4 °F /  2.4 °C 29.58 in /  1001.6 hPa East 1.0 mph /  1.6 km/h 4.0 mph /  6.4 km/h 95 % 0.00 in /  0 mm 37 W/m2
09:00 37.8 °F /  3.2 °C 36.5 °F /  2.5 °C 29.58 in /  1001.6 hPa East 1.0 mph /  1.6 km/h 1.0 mph /  1.6 km/h 95 % 0.00 in /  0 mm 40 W/m2
09:05 37.9 °F /  3.3 °C 36.9 °F /  2.7 °C 29.58 in /  1001.6 hPa East 1.0 mph /  1.6 km/h 2.0 mph /  3.2 km/h 96 % 0.00 in /  0 mm 42 W/m2
09:15 38.0 °F /  3.3 °C 37.0 °F /  2.8 °C 29.59 in /  1001.9 hPa Calm   4.0 mph /  6.4 km/h 96 % 0.00 in /  0 mm 47 W/m2
09:20 38.1 °F /  3.4 °C 36.8 °F /  2.7 °C 29.59 in /  1001.9 hPa Calm   4.0 mph /  6.4 km/h 95 % 0.00 in /  0 mm 51 W/m2
09:25 38.2 °F /  3.4 °C 36.9 °F /  2.7 °C 29.59 in /  1001.9 hPa Calm   4.0 mph /  6.4 km/h 95 % 0.00 in /  0 mm 54 W/m2
09:30 38.3 °F /  3.5 °C 37.3 °F /  2.9 °C 29.60 in /  1002.3 hPa Calm   4.0 mph /  6.4 km/h 96 % 0.00 in /  0 mm 53 W/m2
09:35 38.3 °F /  3.5 °C 37.3 °F /  2.9 °C 29.60 in /  1002.3 hPa East 1.0 mph /  1.6 km/h 4.0 mph /  6.4 km/h 96 % 0.00 in /  0 mm 60 W/m2
09:40 38.4 °F /  3.6 °C 37.4 °F /  3 °C 29.60 in /  1002.3 hPa East 1.0 mph /  1.6 km/h 1.0 mph /  1.6 km/h 96 % 0.00 in /  0 mm 67 W/m2
09:50 38.6 °F /  3.7 °C 37.3 °F /  2.9 °C 29.61 in /  1002.6 hPa Calm   4.0 mph /  6.4 km/h 95 % 0.00 in /  0 mm 72 W/m2
09:55 38.8 °F /  3.8 °C 37.5 °F /  3.1 °C 29.61 in /  1002.6 hPa Calm   4.0 mph /  6.4 km/h 95 % 0.00 in /  0 mm 83 W/m2
10:00 39.0 °F /  3.9 °C 38.0 °F /  3.3 °C 29.61 in /  1002.6 hPa Calm   4.0 mph /  6.4 km/h 96 % 0.00 in /  0 mm 88 W/m2
10:05 39.2 °F /  4 °C 37.9 °F /  3.3 °C 29.61 in /  1002.6 hPa Calm   4.0 mph /  6.4 km/h 95 % 0.00 in /  0 mm 95 W/m2
10:10 39.4 °F /  4.1 °C 38.1 °F /  3.4 °C 29.61 in /  1002.6 hPa Calm   4.0 mph /  6.4 km/h 95 % 0.00 in /  0 mm 97 W/m2
10:20 39.7 °F /  4.3 °C 38.4 °F /  3.6 °C 29.62 in /  1002.9 hPa Calm   4.0 mph /  6.4 km/h 95 % 0.00 in /  0 mm 97 W/m2
10:25 39.7 °F /  4.3 °C 38.1 °F /  3.4 °C 29.62 in /  1002.9 hPa NE 1.0 mph /  1.6 km/h 4.0 mph /  6.4 km/h 94 % 0.00 in /  0 mm 114 W/m2
10:30 39.8 °F /  4.3 °C 38.2 °F /  3.4 °C 29.62 in /  1002.9 hPa NE 2.0 mph /  3.2 km/h 4.0 mph /  6.4 km/h 94 % 0.00 in /  0 mm 132 W/m2
10:35 39.9 °F /  4.4 °C 38.3 °F /  3.5 °C 29.63 in /  1003.3 hPa NNW 1.0 mph /  1.6 km/h 4.0 mph /  6.4 km/h 94 % 0.00 in /  0 mm 137 W/m2
10:40 40.1 °F /  4.5 °C 38.2 °F /  3.4 °C 29.63 in /  1003.3 hPa NNW 1.0 mph /  1.6 km/h 1.0 mph /  1.6 km/h 93 % 0.00 in /  0 mm 134 W/m2
10:45 40.3 °F /  4.6 °C 38.4 °F /  3.6 °C 29.63 in /  1003.3 hPa Calm   4.0 mph /  6.4 km/h 93 % 0.00 in /  0 mm 127 W/m2
10:55 40.7 °F /  4.8 °C 38.8 °F /  3.8 °C 29.63 in /  1003.3 hPa Calm   4.0 mph /  6.4 km/h 93 % 0.00 in /  0 mm 169 W/m2
11:00 40.8 °F /  4.9 °C 38.7 °F /  3.7 °C 29.63 in /  1003.3 hPa ENE 1.0 mph /  1.6 km/h 1.0 mph /  1.6 km/h 92 % 0.00 in /  0 mm 174 W/m2
11:05 41.0 °F /  5 °C 38.9 °F /  3.8 °C 29.63 in /  1003.3 hPa NNE 1.0 mph /  1.6 km/h 5.0 mph /  8 km/h 92 % 0.00 in /  0 mm 181 W/m2
11:10 41.1 °F /  5.1 °C 38.7 °F /  3.7 °C 29.64 in /  1003.6 hPa NNE 2.0 mph /  3.2 km/h 4.0 mph /  6.4 km/h 91 % 0.00 in /  0 mm 218 W/m2
11:15 41.3 °F /  5.2 °C 38.9 °F /  3.8 °C 29.64 in /  1003.6 hPa NNE 2.0 mph /  3.2 km/h 4.0 mph /  6.4 km/h 91 % 0.00 in /  0 mm 473 W/m2
11:25 42.1 °F /  5.6 °C 39.1 °F /  3.9 °C 29.64 in /  1003.6 hPa NNW 2.0 mph /  3.2 km/h 6.0 mph /  9.7 km/h 89 % 0.00 in /  0 mm 192 W/m2
11:30 42.4 °F /  5.8 °C 39.4 °F /  4.1 °C 29.64 in /  1003.6 hPa NW 2.0 mph /  3.2 km/h 4.0 mph /  6.4 km/h 89 % 0.00 in /  0 mm 192 W/m2
11:35 42.6 °F /  5.9 °C 39.3 °F /  4.1 °C 29.64 in /  1003.6 hPa NW 2.0 mph /  3.2 km/h 4.0 mph /  6.4 km/h 88 % 0.00 in /  0 mm 156 W/m2
11:40 42.6 °F /  5.9 °C 38.7 °F /  3.7 °C 29.65 in /  1003.9 hPa NW 2.0 mph /  3.2 km/h 2.0 mph /  3.2 km/h 86 % 0.00 in /  0 mm 153 W/m2
11:45 42.6 °F /  5.9 °C 38.7 °F /  3.7 °C 29.65 in /  1003.9 hPa NW 1.0 mph /  1.6 km/h 4.0 mph /  6.4 km/h 86 % 0.00 in /  0 mm 139 W/m2
11:50 42.6 °F /  5.9 °C 38.7 °F /  3.7 °C 29.65 in /  1003.9 hPa NW 1.0 mph /  1.6 km/h 4.0 mph /  6.4 km/h 86 % 0.00 in /  0 mm 144 W/m2
12:00 42.7 °F /  5.9 °C 38.8 °F /  3.8 °C 29.66 in /  1004.3 hPa NE 1.0 mph /  1.6 km/h 4.0 mph /  6.4 km/h 86 % 0.00 in /  0 mm 172 W/m2
12:05 42.8 °F /  6 °C 38.9 °F /  3.8 °C 29.66 in /  1004.3 hPa NNE 1.0 mph /  1.6 km/h 4.0 mph /  6.4 km/h 86 % 0.00 in /  0 mm 172 W/m2
12:10 42.8 °F /  6 °C 38.6 °F /  3.7 °C 29.66 in /  1004.3 hPa NNE 2.0 mph /  3.2 km/h 2.0 mph /  3.2 km/h 85 % 0.00 in /  0 mm 158 W/m2
12:15 42.8 °F /  6 °C 38.6 °F /  3.7 °C 29.67 in /  1004.6 hPa NNE 1.0 mph /  1.6 km/h 4.0 mph /  6.4 km/h 85 % 0.00 in /  0 mm 142 W/m2
12:20 42.8 °F /  6 °C 38.6 °F /  3.7 °C 29.67 in /  1004.6 hPa NNE 1.0 mph /  1.6 km/h 1.0 mph /  1.6 km/h 85 % 0.00 in /  0 mm 134 W/m2
12:30 42.8 °F /  6 °C 38.3 °F /  3.5 °C 29.67 in /  1004.6 hPa NNE 1.0 mph /  1.6 km/h 1.0 mph /  1.6 km/h 84 % 0.00 in /  0 mm 146 W/m2
12:35 43.0 °F /  6.1 °C 38.8 °F /  3.8 °C 29.67 in /  1004.6 hPa NNE 1.0 mph /  1.6 km/h 4.0 mph /  6.4 km/h 85 % 0.00 in /  0 mm 155 W/m2
12:40 42.9 °F /  6.1 °C 38.4 °F /  3.6 °C 29.68 in /  1005 hPa Calm   4.0 mph /  6.4 km/h 84 % 0.00 in /  0 mm 148 W/m2
12:45 42.9 °F /  6.1 °C 38.4 °F /  3.6 °C 29.68 in /  1005 hPa Calm   4.0 mph /  6.4 km/h 84 % 0.00 in /  0 mm 155 W/m2
12:50 43.1 °F /  6.2 °C 38.6 °F /  3.7 °C 29.68 in /  1005 hPa Calm   4.0 mph /  6.4 km/h 84 % 0.00 in /  0 mm 146 W/m2
12:55 43.2 °F /  6.2 °C 38.4 °F /  3.6 °C 29.68 in /  1005 hPa Calm   4.0 mph /  6.4 km/h 83 % 0.00 in /  0 mm 165 W/m2
13:05 43.3 °F /  6.3 °C 38.5 °F /  3.6 °C 29.69 in /  1005.3 hPa NNE 1.0 mph /  1.6 km/h 4.0 mph /  6.4 km/h 83 % 0.00 in /  0 mm 199 W/m2
13:10 43.5 °F /  6.4 °C 38.7 °F /  3.7 °C 29.69 in /  1005.3 hPa NNE 1.0 mph /  1.6 km/h 1.0 mph /  1.6 km/h 83 % 0.00 in /  0 mm 186 W/m2
13:15 43.6 °F /  6.4 °C 38.5 °F /  3.6 °C 29.69 in /  1005.3 hPa NNE 1.0 mph /  1.6 km/h 4.0 mph /  6.4 km/h 82 % 0.00 in /  0 mm 153 W/m2
13:20 43.7 °F /  6.5 °C 38.3 °F /  3.5 °C 29.69 in /  1005.3 hPa Calm   4.0 mph /  6.4 km/h 81 % 0.00 in /  0 mm 105 W/m2
13:25 43.8 °F /  6.6 °C 38.3 °F /  3.5 °C 29.70 in /  1005.6 hPa Calm   4.0 mph /  6.4 km/h 81 % 0.00 in /  0 mm 134 W/m2
13:35 43.7 °F /  6.5 °C 37.9 °F /  3.3 °C 29.70 in /  1005.6 hPa NNE 1.0 mph /  1.6 km/h 4.0 mph /  6.4 km/h 80 % 0.00 in /  0 mm 155 W/m2
13:40 43.7 °F /  6.5 °C 37.9 °F /  3.3 °C 29.70 in /  1005.6 hPa NNE 1.0 mph /  1.6 km/h 1.0 mph /  1.6 km/h 80 % 0.00 in /  0 mm 128 W/m2
13:45 43.7 °F /  6.5 °C 37.9 °F /  3.3 °C 29.69 in /  1005.3 hPa NNE 1.0 mph /  1.6 km/h 4.0 mph /  6.4 km/h 80 % 0.00 in /  0 mm 127 W/m2
13:50 43.7 °F /  6.5 °C 37.9 °F /  3.3 °C 29.70 in /  1005.6 hPa North 1.0 mph /  1.6 km/h 4.0 mph /  6.4 km/h 80 % 0.00 in /  0 mm 239 W/m2
13:55 43.7 °F /  6.5 °C 37.9 °F /  3.3 °C 29.70 in /  1005.6 hPa North 1.0 mph /  1.6 km/h 4.0 mph /  6.4 km/h 80 % 0.00 in /  0 mm 179 W/m2
14:00 43.7 °F /  6.5 °C 37.9 °F /  3.3 °C 29.70 in /  1005.6 hPa NNW 1.0 mph /  1.6 km/h 4.0 mph /  6.4 km/h 80 % 0.00 in /  0 mm 118 W/m2
14:10 43.9 °F /  6.6 °C 38.4 °F /  3.6 °C 29.70 in /  1005.6 hPa NW 1.0 mph /  1.6 km/h 1.0 mph /  1.6 km/h 81 % 0.00 in /  0 mm 102 W/m2
14:15 44.0 °F /  6.7 °C 38.2 °F /  3.4 °C 29.70 in /  1005.6 hPa NW 1.0 mph /  1.6 km/h 2.0 mph /  3.2 km/h 80 % 0.00 in /  0 mm 104 W/m2
14:20 44.1 °F /  6.7 °C 38.3 °F /  3.5 °C 29.71 in /  1006 hPa NW 1.0 mph /  1.6 km/h 1.0 mph /  1.6 km/h 80 % 0.00 in /  0 mm 95 W/m2
14:25 44.1 °F /  6.7 °C 38.3 °F /  3.5 °C 29.71 in /  1006 hPa NW 1.0 mph /  1.6 km/h 4.0 mph /  6.4 km/h 80 % 0.00 in /  0 mm 81 W/m2
14:30 44.0 °F /  6.7 °C 38.2 °F /  3.4 °C 29.71 in /  1006 hPa NW 1.0 mph /  1.6 km/h 4.0 mph /  6.4 km/h 80 % 0.00 in /  0 mm 84 W/m2
14:40 43.8 °F /  6.6 °C 38.0 °F /  3.3 °C 29.71 in /  1006 hPa NW 3.0 mph /  4.8 km/h 3.0 mph /  4.8 km/h 80 % 0.00 in /  0 mm 86 W/m2
14:45 43.9 °F /  6.6 °C 38.1 °F /  3.4 °C 29.72 in /  1006.3 hPa NW 3.0 mph /  4.8 km/h 5.0 mph /  8 km/h 80 % 0.00 in /  0 mm 70 W/m2
14:50 43.8 °F /  6.6 °C 37.7 °F /  3.2 °C 29.72 in /  1006.3 hPa WNW 3.0 mph /  4.8 km/h 3.0 mph /  4.8 km/h 79 % 0.00 in /  0 mm 51 W/m2
14:55 43.7 °F /  6.5 °C 37.3 °F /  2.9 °C 29.73 in /  1006.7 hPa NW 4.0 mph /  6.4 km/h 4.0 mph /  6.4 km/h 78 % 0.00 in /  0 mm 39 W/m2
15:00 43.7 °F /  6.5 °C 37.3 °F /  2.9 °C 29.73 in /  1006.7 hPa NW 5.0 mph /  8 km/h 5.0 mph /  8 km/h 78 % 0.00 in /  0 mm 44 W/m2
15:05 43.7 °F /  6.5 °C 37.3 °F /  2.9 °C 29.73 in /  1006.7 hPa WNW 3.0 mph /  4.8 km/h 5.0 mph /  8 km/h 78 % 0.00 in /  0 mm 46 W/m2
15:15 43.7 °F /  6.5 °C 37.6 °F /  3.1 °C 29.74 in /  1007 hPa Calm   4.0 mph /  6.4 km/h 79 % 0.00 in /  0 mm 40 W/m2
15:20 43.7 °F /  6.5 °C 37.3 °F /  2.9 °C 29.74 in /  1007 hPa Calm   4.0 mph /  6.4 km/h 78 % 0.00 in /  0 mm 37 W/m2
15:25 43.8 °F /  6.6 °C 37.4 °F /  3 °C 29.74 in /  1007 hPa Calm   4.0 mph /  6.4 km/h 78 % 0.00 in /  0 mm 32 W/m2
15:30 43.8 °F /  6.6 °C 37.4 °F /  3 °C 29.75 in /  1007.3 hPa Calm   4.0 mph /  6.4 km/h 78 % 0.00 in /  0 mm 37 W/m2
15:35 43.8 °F /  6.6 °C 37.7 °F /  3.2 °C 29.75 in /  1007.3 hPa Calm   4.0 mph /  6.4 km/h 79 % 0.00 in /  0 mm 35 W/m2
15:40 43.8 °F /  6.6 °C 37.4 °F /  3 °C 29.75 in /  1007.3 hPa Calm   4.0 mph /  6.4 km/h 78 % 0.00 in /  0 mm 32 W/m2
15:50 43.8 °F /  6.6 °C 37.7 °F /  3.2 °C 29.76 in /  1007.7 hPa Calm   4.0 mph /  6.4 km/h 79 % 0.00 in /  0 mm 30 W/m2
15:55 43.8 °F /  6.6 °C 37.7 °F /  3.2 °C 29.76 in /  1007.7 hPa Calm   4.0 mph /  6.4 km/h 79 % 0.00 in /  0 mm 39 W/m2
16:00 43.7 °F /  6.5 °C 37.3 °F /  2.9 °C 29.76 in /  1007.7 hPa Calm   4.0 mph /  6.4 km/h 78 % 0.00 in /  0 mm 37 W/m2
16:05 43.7 °F /  6.5 °C 37.3 °F /  2.9 °C 29.76 in /  1007.7 hPa Calm   4.0 mph /  6.4 km/h 78 % 0.00 in /  0 mm 35 W/m2
16:10 43.7 °F /  6.5 °C 37.6 °F /  3.1 °C 29.76 in /  1007.7 hPa Calm   4.0 mph /  6.4 km/h 79 % 0.00 in /  0 mm 28 W/m2
16:20 43.6 °F /  6.4 °C 37.5 °F /  3.1 °C 29.77 in /  1008 hPa Calm   4.0 mph /  6.4 km/h 79 % 0.00 in /  0 mm 19 W/m2
16:25 43.6 °F /  6.4 °C 37.8 °F /  3.2 °C 29.77 in /  1008 hPa Calm   4.0 mph /  6.4 km/h 80 % 0.00 in /  0 mm 19 W/m2
16:30 43.5 °F /  6.4 °C 37.7 °F /  3.2 °C 29.77 in /  1008 hPa Calm   4.0 mph /  6.4 km/h 80 % 0.00 in /  0 mm 19 W/m2
16:35 43.5 °F /  6.4 °C 37.7 °F /  3.2 °C 29.77 in /  1008 hPa Calm   4.0 mph /  6.4 km/h 80 % 0.00 in /  0 mm 18 W/m2
16:45 43.3 °F /  6.3 °C 37.5 °F /  3.1 °C 29.78 in /  1008.4 hPa Calm   4.0 mph /  6.4 km/h 80 % 0.00 in /  0 mm 14 W/m2
16:50 43.2 °F /  6.2 °C 37.8 °F /  3.2 °C 29.78 in /  1008.4 hPa Calm   4.0 mph /  6.4 km/h 81 % 0.00 in /  0 mm 9 W/m2
16:55 43.0 °F /  6.1 °C 37.6 °F /  3.1 °C 29.78 in /  1008.4 hPa Calm   4.0 mph /  6.4 km/h 81 % 0.00 in /  0 mm 5 W/m2
17:05 42.5 °F /  5.8 °C 37.1 °F /  2.8 °C 29.79 in /  1008.7 hPa WNW 1.0 mph /  1.6 km/h 4.0 mph /  6.4 km/h 81 % 0.00 in /  0 mm 5 W/m2
17:10 42.3 °F /  5.7 °C 37.2 °F /  2.9 °C 29.79 in /  1008.7 hPa Calm   4.0 mph /  6.4 km/h 82 % 0.00 in /  0 mm 0 W/m2
17:15 42.0 °F /  5.6 °C 36.9 °F /  2.7 °C 29.79 in /  1008.7 hPa Calm   4.0 mph /  6.4 km/h 82 % 0.00 in /  0 mm 0 W/m2
17:20 41.7 °F /  5.4 °C 36.6 °F /  2.6 °C 29.80 in /  1009 hPa Calm   4.0 mph /  6.4 km/h 82 % 0.00 in /  0 mm 0 W/m2
17:30 41.1 °F /  5.1 °C 36.3 °F /  2.4 °C 29.81 in /  1009.4 hPa WNW 1.0 mph /  1.6 km/h 4.0 mph /  6.4 km/h 83 % 0.00 in /  0 mm 0 W/m2
17:35 40.9 °F /  4.9 °C 36.1 °F /  2.3 °C 29.81 in /  1009.4 hPa WNW 2.0 mph /  3.2 km/h 4.0 mph /  6.4 km/h 83 % 0.00 in /  0 mm 0 W/m2
17:40 40.6 °F /  4.8 °C 35.8 °F /  2.1 °C 29.81 in /  1009.4 hPa WNW 1.0 mph /  1.6 km/h 1.0 mph /  1.6 km/h 83 % 0.00 in /  0 mm 0 W/m2
17:45 40.4 °F /  4.7 °C 35.6 °F /  2 °C 29.81 in /  1009.4 hPa Calm   4.0 mph /  6.4 km/h 83 % 0.00 in /  0 mm 0 W/m2
17:50 40.1 °F /  4.5 °C 35.7 °F /  2.1 °C 29.82 in /  1009.7 hPa Calm   4.0 mph /  6.4 km/h 84 % 0.00 in /  0 mm 0 W/m2
18:00 39.4 °F /  4.1 °C 35.3 °F /  1.8 °C 29.82 in /  1009.7 hPa Calm   4.0 mph /  6.4 km/h 85 % 0.00 in /  0 mm 0 W/m2
18:05 39.1 °F /  3.9 °C 35.3 °F /  1.8 °C 29.83 in /  1010 hPa Calm   4.0 mph /  6.4 km/h 86 % 0.00 in /  0 mm 0 W/m2
18:10 38.8 °F /  3.8 °C 35.0 °F /  1.7 °C 29.83 in /  1010 hPa Calm   4.0 mph /  6.4 km/h 86 % 0.00 in /  0 mm 0 W/m2
18:15 38.5 °F /  3.6 °C 34.7 °F /  1.5 °C 29.83 in /  1010 hPa Calm   4.0 mph /  6.4 km/h 86 % 0.00 in /  0 mm 0 W/m2
18:20 38.2 °F /  3.4 °C 34.7 °F /  1.5 °C 29.83 in /  1010 hPa Calm   4.0 mph /  6.4 km/h 87 % 0.00 in /  0 mm 0 W/m2
18:25 38.0 °F /  3.3 °C 34.5 °F /  1.4 °C 29.84 in /  1010.4 hPa Calm   4.0 mph /  6.4 km/h 87 % 0.00 in /  0 mm 0 W/m2
18:35 37.6 °F /  3.1 °C 34.4 °F /  1.3 °C 29.84 in /  1010.4 hPa Calm   4.0 mph /  6.4 km/h 88 % 0.00 in /  0 mm 0 W/m2
18:40 37.5 °F /  3.1 °C 34.6 °F /  1.4 °C 29.84 in /  1010.4 hPa Calm   4.0 mph /  6.4 km/h 89 % 0.00 in /  0 mm 0 W/m2
18:45 37.3 °F /  2.9 °C 34.4 °F /  1.3 °C 29.84 in /  1010.4 hPa Calm   4.0 mph /  6.4 km/h 89 % 0.00 in /  0 mm 0 W/m2
18:50 37.1 °F /  2.8 °C 34.2 °F /  1.2 °C 29.85 in /  1010.7 hPa WNW 1.0 mph /  1.6 km/h 4.0 mph /  6.4 km/h 89 % 0.00 in /  0 mm 0 W/m2
18:55 37.1 °F /  2.8 °C 34.4 °F /  1.3 °C 29.85 in /  1010.7 hPa WNW 2.0 mph /  3.2 km/h 4.0 mph /  6.4 km/h 90 % 0.00 in /  0 mm 0 W/m2
19:05 37.2 °F /  2.9 °C 34.8 °F /  1.6 °C 29.85 in /  1010.7 hPa WNW 1.0 mph /  1.6 km/h 4.0 mph /  6.4 km/h 91 % 0.00 in /  0 mm 0 W/m2
19:10 37.2 °F /  2.9 °C 34.8 °F /  1.6 °C 29.85 in /  1010.7 hPa WNW 1.0 mph /  1.6 km/h 1.0 mph /  1.6 km/h 91 % 0.00 in /  0 mm 0 W/m2
19:15 37.1 °F /  2.8 °C 34.7 °F /  1.5 °C 29.85 in /  1010.7 hPa Calm   3.0 mph /  4.8 km/h 91 % 0.00 in /  0 mm 0 W/m2
19:20 37.2 °F /  2.9 °C 34.8 °F /  1.6 °C 29.85 in /  1010.7 hPa WNW 1.0 mph /  1.6 km/h 6.0 mph /  9.7 km/h 91 % 0.00 in /  0 mm 0 W/m2
19:25 37.5 °F /  3.1 °C 35.1 °F /  1.7 °C 29.85 in /  1010.7 hPa NNW 2.0 mph /  3.2 km/h 6.0 mph /  9.7 km/h 91 % 0.00 in /  0 mm 0 W/m2
19:30 37.8 °F /  3.2 °C 35.4 °F /  1.9 °C 29.86 in /  1011.1 hPa NW 3.0 mph /  4.8 km/h 5.0 mph /  8 km/h 91 % 0.00 in /  0 mm 0 W/m2
19:40 38.1 °F /  3.4 °C 35.4 °F /  1.9 °C 29.86 in /  1011.1 hPa NW 3.0 mph /  4.8 km/h 3.0 mph /  4.8 km/h 90 % 0.00 in /  0 mm 0 W/m2
19:45 38.2 °F /  3.4 °C 35.5 °F /  1.9 °C 29.87 in /  1011.4 hPa NW 2.0 mph /  3.2 km/h 4.0 mph /  6.4 km/h 90 % 0.00 in /  0 mm 0 W/m2
19:50 38.2 °F /  3.4 °C 35.5 °F /  1.9 °C 29.87 in /  1011.4 hPa NW 1.0 mph /  1.6 km/h 1.0 mph /  1.6 km/h 90 % 0.00 in /  0 mm 0 W/m2
20:00 37.9 °F /  3.3 °C 34.9 °F /  1.6 °C 29.88 in /  1011.7 hPa Calm   4.0 mph /  6.4 km/h 89 % 0.00 in /  0 mm 0 W/m2
20:05 37.7 °F /  3.2 °C 34.8 °F /  1.6 °C 29.88 in /  1011.7 hPa Calm   4.0 mph /  6.4 km/h 89 % 0.00 in /  0 mm 0 W/m2
20:10 37.5 °F /  3.1 °C 34.6 °F /  1.4 °C 29.88 in /  1011.7 hPa Calm   4.0 mph /  6.4 km/h 89 % 0.00 in /  0 mm 0 W/m2
20:20 37.2 °F /  2.9 °C 34.3 °F /  1.3 °C 29.89 in /  1012.1 hPa Calm   4.0 mph /  6.4 km/h 89 % 0.00 in /  0 mm 0 W/m2
20:25 37.0 °F /  2.8 °C 34.3 °F /  1.3 °C 29.89 in /  1012.1 hPa Calm   4.0 mph /  6.4 km/h 90 % 0.00 in /  0 mm 0 W/m2
20:30 37.0 °F /  2.8 °C 34.3 °F /  1.3 °C 29.90 in /  1012.4 hPa Calm   4.0 mph /  6.4 km/h 90 % 0.00 in /  0 mm 0 W/m2
20:35 36.8 °F /  2.7 °C 34.1 °F /  1.2 °C 29.90 in /  1012.4 hPa Calm   4.0 mph /  6.4 km/h 90 % 0.00 in /  0 mm 0 W/m2
20:45 36.5 °F /  2.5 °C 33.8 °F /  1 °C 29.91 in /  1012.8 hPa Calm   4.0 mph /  6.4 km/h 90 % 0.00 in /  0 mm 0 W/m2
20:50 36.4 °F /  2.4 °C 33.7 °F /  0.9 °C 29.91 in /  1012.8 hPa Calm   4.0 mph /  6.4 km/h 90 % 0.00 in /  0 mm 0 W/m2
20:55 36.2 °F /  2.3 °C 33.5 °F /  0.8 °C 29.92 in /  1013.1 hPa Calm   4.0 mph /  6.4 km/h 90 % 0.00 in /  0 mm 0 W/m2
21:00 36.0 °F /  2.2 °C 33.4 °F /  0.8 °C 29.92 in /  1013.1 hPa Calm   4.0 mph /  6.4 km/h 90 % 0.00 in /  0 mm 0 W/m2
21:05 35.9 °F /  2.2 °C 33.5 °F /  0.8 °C 29.92 in /  1013.1 hPa Calm   4.0 mph /  6.4 km/h 91 % 0.00 in /  0 mm 0 W/m2
21:10 35.9 °F /  2.2 °C 33.5 °F /  0.8 °C 29.92 in /  1013.1 hPa Calm   4.0 mph /  6.4 km/h 91 % 0.00 in /  0 mm 0 W/m2
21:20 35.7 °F /  2.1 °C 33.3 °F /  0.7 °C 29.93 in /  1013.4 hPa Calm   4.0 mph /  6.4 km/h 91 % 0.00 in /  0 mm 0 W/m2
21:25 35.6 °F /  2 °C 33.2 °F /  0.7 °C 29.93 in /  1013.4 hPa Calm   4.0 mph /  6.4 km/h 91 % 0.00 in /  0 mm 0 W/m2
21:30 35.4 °F /  1.9 °C 33.0 °F /  0.6 °C 29.94 in /  1013.8 hPa Calm   4.0 mph /  6.4 km/h 91 % 0.00 in /  0 mm 0 W/m2
21:35 35.3 °F /  1.8 °C 33.2 °F /  0.7 °C 29.94 in /  1013.8 hPa Calm   4.0 mph /  6.4 km/h 92 % 0.00 in /  0 mm 0 W/m2
21:40 35.2 °F /  1.8 °C 33.1 °F /  0.6 °C 29.94 in /  1013.8 hPa Calm   4.0 mph /  6.4 km/h 92 % 0.00 in /  0 mm 0 W/m2
21:50 34.9 °F /  1.6 °C 32.8 °F /  0.4 °C 29.94 in /  1013.8 hPa Calm   4.0 mph /  6.4 km/h 92 % 0.00 in /  0 mm 0 W/m2
21:55 34.6 °F /  1.4 °C 32.2 °F /  0.1 °C 29.94 in /  1013.8 hPa Calm   4.0 mph /  6.4 km/h 91 % 0.00 in /  0 mm 0 W/m2
22:00 34.3 °F /  1.3 °C 32.2 °F /  0.1 °C 29.95 in /  1014.1 hPa Calm   4.0 mph /  6.4 km/h 92 % 0.00 in /  0 mm 0 W/m2
22:05 34.0 °F /  1.1 °C 31.6 °F /  -0.2 °C 29.95 in /  1014.1 hPa Calm   4.0 mph /  6.4 km/h 91 % 0.00 in /  0 mm 0 W/m2
22:10 33.6 °F /  0.9 °C 31.3 °F /  -0.4 °C 29.95 in /  1014.1 hPa Calm   4.0 mph /  6.4 km/h 91 % 0.00 in /  0 mm 0 W/m2
22:15 33.4 °F /  0.8 °C 31.3 °F /  -0.4 °C 29.95 in /  1014.1 hPa Calm   4.0 mph /  6.4 km/h 92 % 0.00 in /  0 mm 0 W/m2
22:25 33.0 °F /  0.6 °C 30.9 °F /  -0.6 °C 29.95 in /  1014.1 hPa Calm   4.0 mph /  6.4 km/h 92 % 0.00 in /  0 mm 0 W/m2
22:30 32.8 °F /  0.4 °C 30.7 °F /  -0.7 °C 29.96 in /  1014.4 hPa Calm   4.0 mph /  6.4 km/h 92 % 0.00 in /  0 mm 0 W/m2
22:33 33.0 °F /  0.6 °C 31.2 °F /  -0.4 °C 29.96 in /  1014.4 hPa Calm   -999.0 mph /  -1607.7 km/h 93 % 0.00 in /  0 mm 0 W/m2
22:35 32.7 °F /  0.4 °C 30.9 °F /  -0.6 °C 29.96 in /  1014.4 hPa Calm   4.0 mph /  6.4 km/h 93 % 0.00 in /  0 mm 0 W/m2
22:40 32.6 °F /  0.3 °C 30.8 °F /  -0.7 °C 29.96 in /  1014.4 hPa Calm   4.0 mph /  6.4 km/h 93 % 0.00 in /  0 mm 0 W/m2
22:45 32.6 °F /  0.3 °C 30.8 °F /  -0.7 °C 29.96 in /  1014.4 hPa Calm   4.0 mph /  6.4 km/h 93 % 0.00 in /  0 mm 0 W/m2
22:50 32.7 °F /  0.4 °C 31.2 °F /  -0.4 °C 29.96 in /  1014.4 hPa Calm   -999.0 mph /  -1607.7 km/h 94 % 0.00 in /  0 mm 0 W/m2
22:55 32.9 °F /  0.5 °C 31.4 °F /  -0.3 °C 29.96 in /  1014.4 hPa Calm   4.0 mph /  6.4 km/h 94 % 0.00 in /  0 mm 0 W/m2
23:00 33.0 °F /  0.6 °C 31.5 °F /  -0.3 °C 29.96 in /  1014.4 hPa Calm   4.0 mph /  6.4 km/h 94 % 0.00 in /  0 mm 0 W/m2
23:05 33.1 °F /  0.6 °C 31.6 °F /  -0.2 °C 29.97 in /  1014.8 hPa Calm   4.0 mph /  6.4 km/h 94 % 0.00 in /  0 mm 0 W/m2
23:10 33.2 °F /  0.7 °C 31.9 °F /  -0.1 °C 29.97 in /  1014.8 hPa Calm   -999.0 mph /  -1607.7 km/h 95 % 0.00 in /  0 mm 0 W/m2
23:15 33.2 °F /  0.7 °C 31.9 °F /  -0.1 °C 29.97 in /  1014.8 hPa Calm   -999.0 mph /  -1607.7 km/h 95 % 0.00 in /  0 mm 0 W/m2
23:20 33.2 °F /  0.7 °C 31.9 °F /  -0.1 °C 29.97 in /  1014.8 hPa Calm   -999.0 mph /  -1607.7 km/h 95 % 0.00 in /  0 mm 0 W/m2
23:25 33.5 °F /  0.8 °C 32.0 °F /  0 °C 29.97 in /  1014.8 hPa Calm   -999.0 mph /  -1607.7 km/h 94 % 0.00 in /  0 mm 0 W/m2
23:30 33.5 °F /  0.8 °C 32.0 °F /  0 °C 29.97 in /  1014.8 hPa Calm   -999.0 mph /  -1607.7 km/h 94 % 0.00 in /  0 mm 0 W/m2
23:35 33.5 °F /  0.8 °C 32.0 °F /  0 °C 29.97 in /  1014.8 hPa Calm   -999.0 mph /  -1607.7 km/h 94 % 0.00 in /  0 mm 0 W/m2
23:40 33.4 °F /  0.8 °C 31.9 °F /  -0.1 °C 29.97 in /  1014.8 hPa Calm   -999.0 mph /  -1607.7 km/h 94 % 0.00 in /  0 mm 0 W/m2
23:45 33.4 °F /  0.8 °C 31.9 °F /  -0.1 °C 29.97 in /  1014.8 hPa Calm   -999.0 mph /  -1607.7 km/h 94 % 0.00 in /  0 mm 0 W/m2
23:50 33.4 °F /  0.8 °C 31.9 °F /  -0.1 °C 29.97 in /  1014.8 hPa Calm   -999.0 mph /  -1607.7 km/h 94 % 0.00 in /  0 mm 0 W/m2
23:55 33.0 °F /  0.6 °C 31.5 °F /  -0.3 °C 29.98 in /  1015.1 hPa Calm   -999.0 mph /  -1607.7 km/h 94 % 0.00 in /  0 mm 0 W/m2
Delerius-Weather
Compliments of Weather Underground - 2 mb

Data updates at regular intervals.